sensor_id;sensor_type;location;lat;lon;timestamp;P1;durP1;ratioP1;P2;durP2;ratioP2
43606;SDS011;29197;44.788;10.366;2022-09-16T00:01:10;6.25;;;1.70;;
43606;SDS011;29197;44.788;10.366;2022-09-16T00:04:00;7.90;;;1.75;;
43606;SDS011;29197;44.788;10.366;2022-09-16T00:06:50;6.75;;;1.92;;
43606;SDS011;29197;44.788;10.366;2022-09-16T00:09:40;4.75;;;1.52;;
43606;SDS011;29197;44.788;10.366;2022-09-16T00:12:30;4.07;;;1.60;;
43606;SDS011;29197;44.788;10.366;2022-09-16T00:15:19;4.50;;;1.38;;
43606;SDS011;29197;44.788;10.366;2022-09-16T00:18:07;5.05;;;1.55;;
43606;SDS011;29197;44.788;10.366;2022-09-16T00:20:58;6.45;;;1.88;;
43606;SDS011;29197;44.788;10.366;2022-09-16T00:23:47;5.63;;;1.55;;
43606;SDS011;29197;44.788;10.366;2022-09-16T00:26:38;4.60;;;1.60;;
43606;SDS011;29197;44.788;10.366;2022-09-16T00:29:28;4.85;;;1.90;;
43606;SDS011;29197;44.788;10.366;2022-09-16T00:32:17;5.18;;;1.58;;
43606;SDS011;29197;44.788;10.366;2022-09-16T00:35:06;6.07;;;1.45;;
43606;SDS011;29197;44.788;10.366;2022-09-16T00:37:56;8.80;;;2.80;;
43606;SDS011;29197;44.788;10.366;2022-09-16T00:40:45;6.50;;;1.88;;
43606;SDS011;29197;44.788;10.366;2022-09-16T00:43:48;8.98;;;1.85;;
43606;SDS011;29197;44.788;10.366;2022-09-16T00:46:39;5.80;;;1.40;;
43606;SDS011;29197;44.788;10.366;2022-09-16T00:49:31;3.75;;;1.27;;
43606;SDS011;29197;44.788;10.366;2022-09-16T00:52:20;5.22;;;2.70;;
43606;SDS011;29197;44.788;10.366;2022-09-16T00:55:10;6.05;;;1.75;;
43606;SDS011;29197;44.788;10.366;2022-09-16T00:58:03;3.88;;;1.30;;
43606;SDS011;29197;44.788;10.366;2022-09-16T01:00:57;6.97;;;2.00;;
43606;SDS011;29197;44.788;10.366;2022-09-16T01:03:47;6.50;;;1.40;;
43606;SDS011;29197;44.788;10.366;2022-09-16T01:06:38;5.22;;;1.55;;
43606;SDS011;29197;44.788;10.366;2022-09-16T01:09:27;7.00;;;2.13;;
43606;SDS011;29197;44.788;10.366;2022-09-16T01:12:18;5.60;;;1.80;;
43606;SDS011;29197;44.788;10.366;2022-09-16T01:15:07;6.32;;;2.15;;
43606;SDS011;29197;44.788;10.366;2022-09-16T01:18:04;5.63;;;2.00;;
43606;SDS011;29197;44.788;10.366;2022-09-16T01:30:59;4.60;;;1.60;;
43606;SDS011;29197;44.788;10.366;2022-09-16T01:33:58;4.10;;;1.10;;
43606;SDS011;29197;44.788;10.366;2022-09-16T01:36:55;4.22;;;1.58;;
43606;SDS011;29197;44.788;10.366;2022-09-16T01:39:53;3.72;;;1.30;;
43606;SDS011;29197;44.788;10.366;2022-09-16T01:42:54;6.40;;;1.73;;
43606;SDS011;29197;44.788;10.366;2022-09-16T01:45:53;3.72;;;1.42;;
43606;SDS011;29197;44.788;10.366;2022-09-16T01:48:46;2.78;;;1.38;;
43606;SDS011;29197;44.788;10.366;2022-09-16T01:51:41;4.07;;;1.10;;
43606;SDS011;29197;44.788;10.366;2022-09-16T01:54:37;6.10;;;1.40;;
43606;SDS011;29197;44.788;10.366;2022-09-16T01:57:31;5.95;;;1.60;;
43606;SDS011;29197;44.788;10.366;2022-09-16T02:00:24;2.92;;;1.02;;
43606;SDS011;29197;44.788;10.366;2022-09-16T02:03:14;4.13;;;1.58;;
43606;SDS011;29197;44.788;10.366;2022-09-16T02:06:09;4.93;;;1.70;;
43606;SDS011;29197;44.788;10.366;2022-09-16T02:09:03;6.20;;;1.42;;
43606;SDS011;29197;44.788;10.366;2022-09-16T02:11:54;4.40;;;1.42;;
43606;SDS011;29197;44.788;10.366;2022-09-16T02:14:52;4.32;;;1.48;;
43606;SDS011;29197;44.788;10.366;2022-09-16T02:17:45;5.95;;;1.60;;
43606;SDS011;29197;44.788;10.366;2022-09-16T02:20:39;8.02;;;1.58;;
43606;SDS011;29197;44.788;10.366;2022-09-16T02:23:32;7.68;;;1.92;;
43606;SDS011;29197;44.788;10.366;2022-09-16T02:26:25;4.88;;;1.60;;
43606;SDS011;29197;44.788;10.366;2022-09-16T02:29:18;6.55;;;1.80;;
43606;SDS011;29197;44.788;10.366;2022-09-16T02:32:12;4.85;;;1.35;;
43606;SDS011;29197;44.788;10.366;2022-09-16T02:35:02;5.88;;;1.65;;
43606;SDS011;29197;44.788;10.366;2022-09-16T02:37:55;4.72;;;1.77;;
43606;SDS011;29197;44.788;10.366;2022-09-16T02:40:50;5.18;;;1.40;;
43606;SDS011;29197;44.788;10.366;2022-09-16T02:43:41;3.35;;;1.25;;
43606;SDS011;29197;44.788;10.366;2022-09-16T02:46:32;3.25;;;1.60;;
43606;SDS011;29197;44.788;10.366;2022-09-16T02:49:27;2.63;;;1.45;;
43606;SDS011;29197;44.788;10.366;2022-09-16T02:52:24;3.97;;;1.08;;
43606;SDS011;29197;44.788;10.366;2022-09-16T02:55:24;3.45;;;1.30;;
43606;SDS011;29197;44.788;10.366;2022-09-16T02:58:24;3.50;;;1.35;;
43606;SDS011;29197;44.788;10.366;2022-09-16T03:01:14;3.38;;;1.60;;
43606;SDS011;29197;44.788;10.366;2022-09-16T03:04:04;1.63;;;1.17;;
43606;SDS011;29197;44.788;10.366;2022-09-16T03:06:54;4.35;;;1.50;;
43606;SDS011;29197;44.788;10.366;2022-09-16T03:09:44;6.43;;;1.75;;
43606;SDS011;29197;44.788;10.366;2022-09-16T03:12:42;8.20;;;1.67;;
43606;SDS011;29197;44.788;10.366;2022-09-16T03:15:49;6.28;;;1.67;;
43606;SDS011;29197;44.788;10.366;2022-09-16T03:18:50;7.88;;;2.20;;
43606;SDS011;29197;44.788;10.366;2022-09-16T03:21:47;8.30;;;1.80;;
43606;SDS011;29197;44.788;10.366;2022-09-16T03:24:41;9.32;;;3.40;;
43606;SDS011;29197;44.788;10.366;2022-09-16T03:27:40;5.00;;;1.70;;
43606;SDS011;29197;44.788;10.366;2022-09-16T03:30:36;6.47;;;1.80;;
43606;SDS011;29197;44.788;10.366;2022-09-16T03:33:30;5.93;;;1.60;;
43606;SDS011;29197;44.788;10.366;2022-09-16T03:36:24;4.75;;;2.67;;
43606;SDS011;29197;44.788;10.366;2022-09-16T03:39:19;4.57;;;1.80;;
43606;SDS011;29197;44.788;10.366;2022-09-16T03:42:09;2.10;;;1.20;;
43606;SDS011;29197;44.788;10.366;2022-09-16T03:45:00;6.03;;;1.73;;
43606;SDS011;29197;44.788;10.366;2022-09-16T03:47:50;5.72;;;1.92;;
43606;SDS011;29197;44.788;10.366;2022-09-16T03:50:41;7.47;;;2.33;;
43606;SDS011;29197;44.788;10.366;2022-09-16T03:53:31;4.47;;;1.65;;
43606;SDS011;29197;44.788;10.366;2022-09-16T03:56:21;6.32;;;2.00;;
43606;SDS011;29197;44.788;10.366;2022-09-16T03:59:11;6.68;;;2.00;;
43606;SDS011;29197;44.788;10.366;2022-09-16T04:02:00;5.75;;;1.73;;
43606;SDS011;29197;44.788;10.366;2022-09-16T04:04:49;5.82;;;1.70;;
43606;SDS011;29197;44.788;10.366;2022-09-16T04:07:40;4.15;;;2.10;;
43606;SDS011;29197;44.788;10.366;2022-09-16T04:10:29;8.27;;;2.33;;
43606;SDS011;29197;44.788;10.366;2022-09-16T04:13:20;4.82;;;1.88;;
43606;SDS011;29197;44.788;10.366;2022-09-16T04:16:10;4.85;;;1.85;;
43606;SDS011;29197;44.788;10.366;2022-09-16T04:18:59;4.68;;;1.42;;
43606;SDS011;29197;44.788;10.366;2022-09-16T04:21:48;4.40;;;1.58;;
43606;SDS011;29197;44.788;10.366;2022-09-16T04:24:39;2.95;;;1.65;;
43606;SDS011;29197;44.788;10.366;2022-09-16T04:27:28;4.10;;;1.70;;
43606;SDS011;29197;44.788;10.366;2022-09-16T04:30:17;2.83;;;1.80;;
43606;SDS011;29197;44.788;10.366;2022-09-16T04:33:07;3.45;;;1.50;;
43606;SDS011;29197;44.788;10.366;2022-09-16T04:36:00;6.38;;;1.83;;
43606;SDS011;29197;44.788;10.366;2022-09-16T04:38:51;5.63;;;2.00;;
43606;SDS011;29197;44.788;10.366;2022-09-16T04:41:42;11.07;;;2.22;;
43606;SDS011;29197;44.788;10.366;2022-09-16T04:44:32;5.68;;;1.83;;
43606;SDS011;29197;44.788;10.366;2022-09-16T04:47:21;2.65;;;1.40;;
43606;SDS011;29197;44.788;10.366;2022-09-16T04:50:11;7.22;;;2.38;;
43606;SDS011;29197;44.788;10.366;2022-09-16T04:53:00;6.05;;;2.92;;
43606;SDS011;29197;44.788;10.366;2022-09-16T04:55:49;4.03;;;1.80;;
43606;SDS011;29197;44.788;10.366;2022-09-16T04:58:39;2.28;;;1.40;;
43606;SDS011;29197;44.788;10.366;2022-09-16T05:01:29;4.10;;;2.03;;
43606;SDS011;29197;44.788;10.366;2022-09-16T05:04:20;3.70;;;1.80;;
43606;SDS011;29197;44.788;10.366;2022-09-16T05:07:09;7.53;;;2.22;;
43606;SDS011;29197;44.788;10.366;2022-09-16T05:09:59;5.90;;;2.22;;
43606;SDS011;29197;44.788;10.366;2022-09-16T05:12:49;4.50;;;2.40;;
43606;SDS011;29197;44.788;10.366;2022-09-16T05:15:40;5.75;;;1.92;;
43606;SDS011;29197;44.788;10.366;2022-09-16T05:18:36;5.53;;;2.05;;
43606;SDS011;29197;44.788;10.366;2022-09-16T05:21:27;11.30;;;3.60;;
43606;SDS011;29197;44.788;10.366;2022-09-16T05:24:16;5.03;;;2.28;;
43606;SDS011;29197;44.788;10.366;2022-09-16T05:27:05;5.35;;;2.25;;
43606;SDS011;29197;44.788;10.366;2022-09-16T05:29:55;6.82;;;2.15;;
43606;SDS011;29197;44.788;10.366;2022-09-16T05:32:45;6.80;;;1.83;;
43606;SDS011;29197;44.788;10.366;2022-09-16T05:35:35;6.45;;;2.17;;
43606;SDS011;29197;44.788;10.366;2022-09-16T05:38:25;3.63;;;1.98;;
43606;SDS011;29197;44.788;10.366;2022-09-16T05:41:14;6.88;;;2.40;;
43606;SDS011;29197;44.788;10.366;2022-09-16T05:44:04;6.72;;;2.17;;
43606;SDS011;29197;44.788;10.366;2022-09-16T05:46:54;4.10;;;2.42;;
43606;SDS011;29197;44.788;10.366;2022-09-16T05:49:45;4.20;;;2.60;;
43606;SDS011;29197;44.788;10.366;2022-09-16T05:52:35;7.32;;;2.45;;
43606;SDS011;29197;44.788;10.366;2022-09-16T05:55:24;4.57;;;2.60;;
43606;SDS011;29197;44.788;10.366;2022-09-16T05:58:14;6.13;;;1.98;;
43606;SDS011;29197;44.788;10.366;2022-09-16T06:01:03;7.07;;;2.35;;
43606;SDS011;29197;44.788;10.366;2022-09-16T06:03:53;5.90;;;2.08;;
43606;SDS011;29197;44.788;10.366;2022-09-16T06:06:45;3.88;;;2.33;;
43606;SDS011;29197;44.788;10.366;2022-09-16T06:09:34;3.83;;;2.42;;
43606;SDS011;29197;44.788;10.366;2022-09-16T06:12:23;6.75;;;2.10;;
43606;SDS011;29197;44.788;10.366;2022-09-16T06:15:12;4.53;;;1.95;;
43606;SDS011;29197;44.788;10.366;2022-09-16T06:18:01;5.88;;;1.88;;
43606;SDS011;29197;44.788;10.366;2022-09-16T06:20:52;4.82;;;2.45;;
43606;SDS011;29197;44.788;10.366;2022-09-16T06:23:42;5.97;;;1.92;;
43606;SDS011;29197;44.788;10.366;2022-09-16T06:26:31;7.80;;;1.98;;
43606;SDS011;29197;44.788;10.366;2022-09-16T06:29:21;5.88;;;2.13;;
43606;SDS011;29197;44.788;10.366;2022-09-16T06:32:11;6.05;;;2.00;;
43606;SDS011;29197;44.788;10.366;2022-09-16T06:35:00;7.55;;;1.73;;
43606;SDS011;29197;44.788;10.366;2022-09-16T06:37:48;6.07;;;2.20;;
43606;SDS011;29197;44.788;10.366;2022-09-16T06:40:40;4.68;;;1.77;;
43606;SDS011;29197;44.788;10.366;2022-09-16T06:43:29;5.47;;;1.85;;
43606;SDS011;29197;44.788;10.366;2022-09-16T06:46:19;3.65;;;1.90;;
43606;SDS011;29197;44.788;10.366;2022-09-16T06:49:10;5.85;;;2.10;;
43606;SDS011;29197;44.788;10.366;2022-09-16T06:52:00;4.30;;;1.90;;
43606;SDS011;29197;44.788;10.366;2022-09-16T06:54:49;3.83;;;2.25;;
43606;SDS011;29197;44.788;10.366;2022-09-16T06:57:40;5.13;;;2.13;;
43606;SDS011;29197;44.788;10.366;2022-09-16T07:00:29;5.03;;;2.88;;
43606;SDS011;29197;44.788;10.366;2022-09-16T07:03:19;9.55;;;3.63;;
43606;SDS011;29197;44.788;10.366;2022-09-16T07:06:08;6.00;;;3.05;;
43606;SDS011;29197;44.788;10.366;2022-09-16T07:08:59;7.32;;;3.22;;
43606;SDS011;29197;44.788;10.366;2022-09-16T07:11:47;10.15;;;4.55;;
43606;SDS011;29197;44.788;10.366;2022-09-16T07:14:38;6.75;;;4.18;;
43606;SDS011;29197;44.788;10.366;2022-09-16T07:17:27;8.32;;;4.50;;
43606;SDS011;29197;44.788;10.366;2022-09-16T07:20:16;7.57;;;4.50;;
43606;SDS011;29197;44.788;10.366;2022-09-16T07:23:05;5.13;;;3.47;;
43606;SDS011;29197;44.788;10.366;2022-09-16T07:25:58;8.00;;;4.03;;
43606;SDS011;29197;44.788;10.366;2022-09-16T07:28:49;10.88;;;4.70;;
43606;SDS011;29197;44.788;10.366;2022-09-16T07:31:39;10.52;;;5.15;;
43606;SDS011;29197;44.788;10.366;2022-09-16T07:34:29;8.80;;;4.30;;
43606;SDS011;29197;44.788;10.366;2022-09-16T07:37:18;7.40;;;4.22;;
43606;SDS011;29197;44.788;10.366;2022-09-16T07:40:08;7.80;;;4.97;;
43606;SDS011;29197;44.788;10.366;2022-09-16T07:42:59;10.93;;;6.65;;
43606;SDS011;29197;44.788;10.366;2022-09-16T07:45:54;8.30;;;3.95;;
43606;SDS011;29197;44.788;10.366;2022-09-16T07:48:46;10.38;;;5.25;;
43606;SDS011;29197;44.788;10.366;2022-09-16T07:51:36;12.60;;;6.32;;
43606;SDS011;29197;44.788;10.366;2022-09-16T07:54:25;7.75;;;5.10;;
43606;SDS011;29197;44.788;10.366;2022-09-16T07:57:14;7.88;;;5.28;;
43606;SDS011;29197;44.788;10.366;2022-09-16T08:00:04;8.45;;;5.22;;
43606;SDS011;29197;44.788;10.366;2022-09-16T08:02:55;13.85;;;5.75;;
43606;SDS011;29197;44.788;10.366;2022-09-16T08:05:45;9.07;;;5.20;;
43606;SDS011;29197;44.788;10.366;2022-09-16T08:08:34;7.85;;;3.75;;
43606;SDS011;29197;44.788;10.366;2022-09-16T08:11:22;11.27;;;4.57;;
43606;SDS011;29197;44.788;10.366;2022-09-16T08:14:12;9.32;;;4.32;;
43606;SDS011;29197;44.788;10.366;2022-09-16T08:17:01;8.52;;;3.55;;
43606;SDS011;29197;44.788;10.366;2022-09-16T08:19:49;14.10;;;5.28;;
43606;SDS011;29197;44.788;10.366;2022-09-16T08:22:39;13.50;;;4.38;;
43606;SDS011;29197;44.788;10.366;2022-09-16T08:25:28;11.45;;;4.55;;
43606;SDS011;29197;44.788;10.366;2022-09-16T08:28:17;9.15;;;4.00;;
43606;SDS011;29197;44.788;10.366;2022-09-16T08:31:06;12.55;;;6.10;;
43606;SDS011;29197;44.788;10.366;2022-09-16T08:33:56;6.43;;;3.67;;
43606;SDS011;29197;44.788;10.366;2022-09-16T08:36:45;9.35;;;4.75;;
43606;SDS011;29197;44.788;10.366;2022-09-16T08:39:36;17.73;;;6.90;;
43606;SDS011;29197;44.788;10.366;2022-09-16T08:42:29;11.13;;;5.68;;
43606;SDS011;29197;44.788;10.366;2022-09-16T08:45:27;10.43;;;5.05;;
43606;SDS011;29197;44.788;10.366;2022-09-16T08:48:27;8.98;;;3.47;;
43606;SDS011;29197;44.788;10.366;2022-09-16T08:51:21;10.30;;;4.90;;
43606;SDS011;29197;44.788;10.366;2022-09-16T08:54:17;15.35;;;5.93;;
43606;SDS011;29197;44.788;10.366;2022-09-16T08:57:16;10.27;;;6.00;;
43606;SDS011;29197;44.788;10.366;2022-09-16T09:00:10;11.60;;;6.32;;
43606;SDS011;29197;44.788;10.366;2022-09-16T09:03:05;12.65;;;6.45;;
43606;SDS011;29197;44.788;10.366;2022-09-16T09:06:02;15.63;;;8.88;;
43606;SDS011;29197;44.788;10.366;2022-09-16T09:09:03;10.27;;;4.97;;
43606;SDS011;29197;44.788;10.366;2022-09-16T09:12:02;17.35;;;7.30;;
43606;SDS011;29197;44.788;10.366;2022-09-16T09:15:07;11.48;;;5.68;;
43606;SDS011;29197;44.788;10.366;2022-09-16T09:18:15;16.17;;;6.40;;
43606;SDS011;29197;44.788;10.366;2022-09-16T09:21:14;9.02;;;5.30;;
43606;SDS011;29197;44.788;10.366;2022-09-16T09:24:18;14.00;;;5.30;;
43606;SDS011;29197;44.788;10.366;2022-09-16T09:27:20;8.10;;;5.50;;
43606;SDS011;29197;44.788;10.366;2022-09-16T09:30:18;13.13;;;6.15;;
43606;SDS011;29197;44.788;10.366;2022-09-16T09:33:12;13.73;;;5.80;;
43606;SDS011;29197;44.788;10.366;2022-09-16T09:36:32;12.93;;;6.38;;
43606;SDS011;29197;44.788;10.366;2022-09-16T09:39:32;9.57;;;6.18;;
43606;SDS011;29197;44.788;10.366;2022-09-16T09:42:24;11.25;;;5.55;;
43606;SDS011;29197;44.788;10.366;2022-09-16T09:45:20;10.07;;;5.50;;
43606;SDS011;29197;44.788;10.366;2022-09-16T09:48:15;8.00;;;4.88;;
43606;SDS011;29197;44.788;10.366;2022-09-16T09:51:10;10.15;;;4.88;;
43606;SDS011;29197;44.788;10.366;2022-09-16T09:54:09;10.15;;;5.05;;
43606;SDS011;29197;44.788;10.366;2022-09-16T09:57:11;10.05;;;6.03;;
43606;SDS011;29197;44.788;10.366;2022-09-16T10:00:04;12.45;;;6.70;;
43606;SDS011;29197;44.788;10.366;2022-09-16T10:03:03;15.10;;;7.78;;
43606;SDS011;29197;44.788;10.366;2022-09-16T10:05:53;9.07;;;4.53;;
43606;SDS011;29197;44.788;10.366;2022-09-16T10:08:43;17.27;;;8.15;;
43606;SDS011;29197;44.788;10.366;2022-09-16T10:11:33;11.80;;;5.32;;
43606;SDS011;29197;44.788;10.366;2022-09-16T10:14:34;7.13;;;3.83;;
43606;SDS011;29197;44.788;10.366;2022-09-16T10:17:25;9.52;;;4.25;;
43606;SDS011;29197;44.788;10.366;2022-09-16T10:20:22;13.52;;;5.10;;
43606;SDS011;29197;44.788;10.366;2022-09-16T10:23:15;10.98;;;5.78;;
43606;SDS011;29197;44.788;10.366;2022-09-16T10:26:17;8.88;;;4.18;;
43606;SDS011;29197;44.788;10.366;2022-09-16T10:29:13;10.55;;;5.25;;
43606;SDS011;29197;44.788;10.366;2022-09-16T10:32:03;8.55;;;3.97;;
43606;SDS011;29197;44.788;10.366;2022-09-16T10:34:56;10.23;;;3.70;;
43606;SDS011;29197;44.788;10.366;2022-09-16T10:37:48;4.50;;;2.05;;
43606;SDS011;29197;44.788;10.366;2022-09-16T10:40:49;5.60;;;2.55;;
43606;SDS011;29197;44.788;10.366;2022-09-16T10:43:38;11.60;;;4.10;;
43606;SDS011;29197;44.788;10.366;2022-09-16T10:46:35;5.85;;;2.53;;
43606;SDS011;29197;44.788;10.366;2022-09-16T10:49:26;5.45;;;2.38;;
43606;SDS011;29197;44.788;10.366;2022-09-16T10:52:27;7.40;;;2.90;;
43606;SDS011;29197;44.788;10.366;2022-09-16T10:55:22;8.70;;;2.85;;
43606;SDS011;29197;44.788;10.366;2022-09-16T10:58:16;10.68;;;5.50;;
43606;SDS011;29197;44.788;10.366;2022-09-16T11:01:15;6.15;;;3.22;;
43606;SDS011;29197;44.788;10.366;2022-09-16T11:04:23;6.00;;;2.70;;
43606;SDS011;29197;44.788;10.366;2022-09-16T11:07:33;7.30;;;2.85;;
43606;SDS011;29197;44.788;10.366;2022-09-16T11:10:32;6.68;;;2.70;;
43606;SDS011;29197;44.788;10.366;2022-09-16T11:13:31;6.60;;;3.15;;
43606;SDS011;29197;44.788;10.366;2022-09-16T11:16:29;6.90;;;3.13;;
43606;SDS011;29197;44.788;10.366;2022-09-16T11:19:33;6.75;;;2.00;;
43606;SDS011;29197;44.788;10.366;2022-09-16T11:22:32;8.05;;;2.28;;
43606;SDS011;29197;44.788;10.366;2022-09-16T11:25:34;6.45;;;2.55;;
43606;SDS011;29197;44.788;10.366;2022-09-16T11:56:00;4.03;;;1.98;;
43606;SDS011;29197;44.788;10.366;2022-09-16T11:58:54;12.85;;;3.08;;
43606;SDS011;29197;44.788;10.366;2022-09-16T12:01:49;8.55;;;2.70;;
43606;SDS011;29197;44.788;10.366;2022-09-16T12:04:43;8.13;;;3.33;;
43606;SDS011;29197;44.788;10.366;2022-09-16T12:07:33;6.68;;;2.42;;
43606;SDS011;29197;44.788;10.366;2022-09-16T12:10:25;5.57;;;2.80;;
43606;SDS011;29197;44.788;10.366;2022-09-16T12:13:23;7.68;;;3.17;;
43606;SDS011;29197;44.788;10.366;2022-09-16T12:16:17;7.45;;;2.65;;
43606;SDS011;29197;44.788;10.366;2022-09-16T12:19:17;6.72;;;2.15;;
43606;SDS011;29197;44.788;10.366;2022-09-16T12:22:12;6.75;;;1.80;;
43606;SDS011;29197;44.788;10.366;2022-09-16T12:25:05;8.13;;;2.60;;
43606;SDS011;29197;44.788;10.366;2022-09-16T12:27:59;5.82;;;2.08;;
43606;SDS011;29197;44.788;10.366;2022-09-16T12:30:52;5.60;;;2.03;;
43606;SDS011;29197;44.788;10.366;2022-09-16T12:33:47;6.55;;;2.35;;
43606;SDS011;29197;44.788;10.366;2022-09-16T12:36:41;7.97;;;2.35;;
43606;SDS011;29197;44.788;10.366;2022-09-16T12:39:32;5.75;;;2.35;;
43606;SDS011;29197;44.788;10.366;2022-09-16T12:45:56;7.93;;;2.38;;
43606;SDS011;29197;44.788;10.366;2022-09-16T12:49:35;5.20;;;1.92;;
43606;SDS011;29197;44.788;10.366;2022-09-16T12:52:51;11.65;;;3.45;;
43606;SDS011;29197;44.788;10.366;2022-09-16T12:56:07;8.32;;;3.25;;
43606;SDS011;29197;44.788;10.366;2022-09-16T12:59:12;8.20;;;3.78;;
43606;SDS011;29197;44.788;10.366;2022-09-16T13:02:14;7.47;;;2.78;;
43606;SDS011;29197;44.788;10.366;2022-09-16T13:05:11;12.40;;;4.47;;
43606;SDS011;29197;44.788;10.366;2022-09-16T13:08:06;11.32;;;4.70;;
43606;SDS011;29197;44.788;10.366;2022-09-16T13:11:14;10.23;;;5.15;;
43606;SDS011;29197;44.788;10.366;2022-09-16T13:14:27;9.88;;;4.03;;
43606;SDS011;29197;44.788;10.366;2022-09-16T13:17:27;13.70;;;6.28;;
43606;SDS011;29197;44.788;10.366;2022-09-16T13:20:17;11.93;;;5.07;;
43606;SDS011;29197;44.788;10.366;2022-09-16T13:23:07;13.35;;;6.45;;
43606;SDS011;29197;44.788;10.366;2022-09-16T13:26:01;9.90;;;4.10;;
43606;SDS011;29197;44.788;10.366;2022-09-16T13:28:52;7.53;;;4.30;;
43606;SDS011;29197;44.788;10.366;2022-09-16T13:31:45;11.48;;;4.85;;
43606;SDS011;29197;44.788;10.366;2022-09-16T13:34:37;9.93;;;5.10;;
43606;SDS011;29197;44.788;10.366;2022-09-16T13:37:26;13.43;;;6.50;;
43606;SDS011;29197;44.788;10.366;2022-09-16T13:40:16;15.70;;;7.28;;
43606;SDS011;29197;44.788;10.366;2022-09-16T13:43:12;8.70;;;4.90;;
43606;SDS011;29197;44.788;10.366;2022-09-16T13:46:06;13.55;;;5.82;;
43606;SDS011;29197;44.788;10.366;2022-09-16T13:48:57;19.33;;;7.88;;
43606;SDS011;29197;44.788;10.366;2022-09-16T13:51:50;11.20;;;4.47;;
43606;SDS011;29197;44.788;10.366;2022-09-16T13:54:40;15.35;;;8.55;;
43606;SDS011;29197;44.788;10.366;2022-09-16T13:57:59;10.23;;;4.50;;
43606;SDS011;29197;44.788;10.366;2022-09-16T14:00:56;12.95;;;5.20;;
43606;SDS011;29197;44.788;10.366;2022-09-16T14:03:54;9.13;;;3.85;;
43606;SDS011;29197;44.788;10.366;2022-09-16T14:06:56;9.35;;;3.35;;
43606;SDS011;29197;44.788;10.366;2022-09-16T14:09:58;10.88;;;4.45;;
43606;SDS011;29197;44.788;10.366;2022-09-16T14:12:50;7.57;;;3.40;;
43606;SDS011;29197;44.788;10.366;2022-09-16T14:15:47;8.25;;;4.65;;
43606;SDS011;29197;44.788;10.366;2022-09-16T14:18:39;9.35;;;4.30;;
43606;SDS011;29197;44.788;10.366;2022-09-16T14:21:31;7.72;;;3.72;;
43606;SDS011;29197;44.788;10.366;2022-09-16T14:24:22;11.23;;;3.80;;
43606;SDS011;29197;44.788;10.366;2022-09-16T14:27:18;6.47;;;3.10;;
43606;SDS011;29197;44.788;10.366;2022-09-16T14:30:12;10.75;;;2.58;;
43606;SDS011;29197;44.788;10.366;2022-09-16T14:33:05;7.13;;;2.42;;
43606;SDS011;29197;44.788;10.366;2022-09-16T14:35:54;6.60;;;3.20;;
43606;SDS011;29197;44.788;10.366;2022-09-16T14:38:45;5.05;;;2.22;;
43606;SDS011;29197;44.788;10.366;2022-09-16T14:41:39;6.45;;;1.88;;
43606;SDS011;29197;44.788;10.366;2022-09-16T14:44:31;3.53;;;2.13;;
43606;SDS011;29197;44.788;10.366;2022-09-16T14:47:26;3.42;;;1.92;;
43606;SDS011;29197;44.788;10.366;2022-09-16T14:50:37;4.40;;;1.80;;
43606;SDS011;29197;44.788;10.366;2022-09-16T14:53:29;5.68;;;2.03;;
43606;SDS011;29197;44.788;10.366;2022-09-16T14:56:23;6.13;;;2.00;;
43606;SDS011;29197;44.788;10.366;2022-09-16T14:59:14;6.18;;;1.80;;
43606;SDS011;29197;44.788;10.366;2022-09-16T15:02:04;8.27;;;2.15;;
43606;SDS011;29197;44.788;10.366;2022-09-16T15:05:07;7.00;;;2.08;;
43606;SDS011;29197;44.788;10.366;2022-09-16T15:08:06;4.78;;;1.50;;
43606;SDS011;29197;44.788;10.366;2022-09-16T15:11:04;3.97;;;1.65;;
43606;SDS011;29197;44.788;10.366;2022-09-16T15:14:19;4.43;;;1.73;;
43606;SDS011;29197;44.788;10.366;2022-09-16T15:17:09;6.35;;;1.85;;
43606;SDS011;29197;44.788;10.366;2022-09-16T15:20:16;2.63;;;1.73;;
43606;SDS011;29197;44.788;10.366;2022-09-16T15:23:15;5.05;;;1.80;;
43606;SDS011;29197;44.788;10.366;2022-09-16T15:26:11;5.00;;;1.67;;
43606;SDS011;29197;44.788;10.366;2022-09-16T15:29:03;2.38;;;1.33;;
43606;SDS011;29197;44.788;10.366;2022-09-16T15:31:55;2.95;;;1.77;;
43606;SDS011;29197;44.788;10.366;2022-09-16T15:35:02;7.82;;;1.88;;
43606;SDS011;29197;44.788;10.366;2022-09-16T15:38:08;4.45;;;1.85;;
43606;SDS011;29197;44.788;10.366;2022-09-16T15:41:01;3.67;;;1.92;;
43606;SDS011;29197;44.788;10.366;2022-09-16T15:43:51;4.15;;;2.20;;
43606;SDS011;29197;44.788;10.366;2022-09-16T15:46:43;4.97;;;2.05;;
43606;SDS011;29197;44.788;10.366;2022-09-16T15:49:36;4.32;;;1.67;;
43606;SDS011;29197;44.788;10.366;2022-09-16T15:52:27;5.03;;;1.88;;
43606;SDS011;29197;44.788;10.366;2022-09-16T15:55:23;4.30;;;1.90;;
43606;SDS011;29197;44.788;10.366;2022-09-16T15:58:18;4.15;;;1.75;;
43606;SDS011;29197;44.788;10.366;2022-09-16T16:01:12;4.15;;;2.28;;
43606;SDS011;29197;44.788;10.366;2022-09-16T16:04:04;2.15;;;1.50;;
43606;SDS011;29197;44.788;10.366;2022-09-16T16:06:57;3.05;;;1.55;;
43606;SDS011;29197;44.788;10.366;2022-09-16T16:09:48;3.75;;;1.88;;
43606;SDS011;29197;44.788;10.366;2022-09-16T16:12:40;6.18;;;1.55;;
43606;SDS011;29197;44.788;10.366;2022-09-16T16:15:32;4.43;;;1.52;;
43606;SDS011;29197;44.788;10.366;2022-09-16T16:18:24;3.50;;;1.50;;
43606;SDS011;29197;44.788;10.366;2022-09-16T16:21:13;3.45;;;1.52;;
43606;SDS011;29197;44.788;10.366;2022-09-16T16:24:05;3.88;;;1.60;;
43606;SDS011;29197;44.788;10.366;2022-09-16T16:26:54;4.00;;;1.90;;
43606;SDS011;29197;44.788;10.366;2022-09-16T16:29:43;4.47;;;1.92;;
43606;SDS011;29197;44.788;10.366;2022-09-16T16:32:32;4.63;;;1.52;;
43606;SDS011;29197;44.788;10.366;2022-09-16T16:35:21;3.70;;;1.55;;
43606;SDS011;29197;44.788;10.366;2022-09-16T16:38:10;2.88;;;1.10;;
43606;SDS011;29197;44.788;10.366;2022-09-16T16:41:01;3.17;;;1.17;;
43606;SDS011;29197;44.788;10.366;2022-09-16T16:43:50;3.85;;;1.50;;
43606;SDS011;29197;44.788;10.366;2022-09-16T16:46:39;4.03;;;2.05;;
43606;SDS011;29197;44.788;10.366;2022-09-16T16:49:29;3.83;;;1.17;;
43606;SDS011;29197;44.788;10.366;2022-09-16T16:52:19;3.03;;;0.90;;
43606;SDS011;29197;44.788;10.366;2022-09-16T16:55:09;1.70;;;0.90;;
43606;SDS011;29197;44.788;10.366;2022-09-16T16:57:59;3.70;;;0.95;;
43606;SDS011;29197;44.788;10.366;2022-09-16T17:00:48;5.15;;;1.70;;
43606;SDS011;29197;44.788;10.366;2022-09-16T17:03:37;2.83;;;1.40;;
43606;SDS011;29197;44.788;10.366;2022-09-16T17:06:27;4.47;;;2.50;;
43606;SDS011;29197;44.788;10.366;2022-09-16T17:09:17;4.22;;;1.17;;
43606;SDS011;29197;44.788;10.366;2022-09-16T17:12:06;1.77;;;1.05;;
43606;SDS011;29197;44.788;10.366;2022-09-16T17:15:00;3.90;;;1.08;;
43606;SDS011;29197;44.788;10.366;2022-09-16T17:17:49;2.72;;;1.30;;
43606;SDS011;29197;44.788;10.366;2022-09-16T17:20:39;4.57;;;1.05;;
43606;SDS011;29197;44.788;10.366;2022-09-16T17:23:28;3.88;;;1.20;;
43606;SDS011;29197;44.788;10.366;2022-09-16T17:26:17;3.72;;;1.35;;
43606;SDS011;29197;44.788;10.366;2022-09-16T17:29:07;4.43;;;1.60;;
43606;SDS011;29197;44.788;10.366;2022-09-16T17:32:03;2.85;;;1.25;;
43606;SDS011;29197;44.788;10.366;2022-09-16T17:34:54;2.67;;;1.30;;
43606;SDS011;29197;44.788;10.366;2022-09-16T17:37:44;4.88;;;1.33;;
43606;SDS011;29197;44.788;10.366;2022-09-16T17:40:34;2.35;;;1.20;;
43606;SDS011;29197;44.788;10.366;2022-09-16T17:43:24;1.95;;;1.20;;
43606;SDS011;29197;44.788;10.366;2022-09-16T17:46:18;3.25;;;1.23;;